Osan Air Base
RKSO : now visible

Airfield :











YOU CAN JOIN US ON...

 
LOGIN :

Register | Disclaimer

   EN    FR    IT 

 









Legend :    VFR   Marginal VFR   IFR   Intensive IFR   Very Intensive IFR
Visi :
Ceiling :
>= 8 km
>= 3000ft
5 to 8 km
1000 to 3000 ft
1500m to 5 km
500 to 1000 ft
800 to 1500m
200 to 500 ft
< 800m
< 200 ft
Symbols :   Thunderstorms  Fog  Heavy snow  Heavy precipitations  Wind > 20 kt







- Airport Elevation : 38 ft
- IATA code : OSN


RKSO - Osan Air Base

CURRENT METAR :
  • 211858Z 05006KT 7SM -RA FEW020 OVC090 16/14 A2999 RMK AO2A SLP159 P0005 T01560141 PNO $

EXPIRED METARs :
  • 211758Z 05007KT 7SM -RA FEW045 OVC090 16/14 A3002 RMK AO2A SLP169 P0010 60040 T01570141 10161 20155 57025 PNO $
  • 211658Z 06006KT 7SM -RA OVC095 16/14 A3006 RMK AO2A SLP182 P0010 T01580143 PNO $

TAF TAF RKSO
Valid from the 21 at 17:00 until the 22 at 23:00 UTC


211700Z 2117/2223 06012KT 8000 -RA SCT020 OVC100 QNH3004INS
BECMG 2119/2120 05015G20KT 6000 +RA SCT020 OVC080 QNH2972INS
BECMG 2202/2203 06020G25KT 6000 RA SCT020 OVC080 QNH2970INS
TEMPO 2210/2212 08025G35KT BKN009 520003
BECMG 2216/2217 08015G20KT 6000 RA SCT020 OVC080 QNH2972INS TX18/2204Z TN15/2119Z
No reported NOTAMs for that airfield.



MET'MAP, your aeronautical weather chart ! - Copyright ORBIFLY December 2007 - Disclaimer

ORBIFLY MET'MAP TEAM :

Programming & Development : Alexandra Zaïnal
Concept & Development : Baudouin d'Aumeries
Co-Development & Prog : Marc-Olivier Méhu
Technical & hardware support : Manuel Goepfert

Contact : metmap@orbifly.com




SOURCES & CREDITS :

   NOAA       Earth
Advisory